Terminal Aerodrome Forecast
Issued by NWS Caribou, ME

Home | Current Version | Previous Version | Text Only | Print | Product List | Glossary On
Versions: 1 2 3 4 5 6 7 8 9 10 11 12 13 14
195
FTUS41 KCAR 161917 AAA
TAFBGR
TAF AMD
KBGR 161917Z 1619/1718 28006KT P6SM BKN060
     FM170000 29005KT P6SM SCT250=

USA.gov is the U.S. government's official web portal to all federal, state and local government web resources and services.